createdAt,value
2023-04-12T00:00:15.494Z,5.94
2023-04-12T00:01:18.675Z,5.93
2023-04-12T00:02:21.131Z,5.93
2023-04-12T00:03:25.404Z,5.93
2023-04-12T00:04:28.803Z,5.92
2023-04-12T00:05:33.267Z,5.92
2023-04-12T00:06:36.294Z,5.92
2023-04-12T00:07:39.515Z,5.91
2023-04-12T00:08:42.847Z,5.90
2023-04-12T00:09:45.916Z,5.90
2023-04-12T00:10:49.297Z,5.91
2023-04-12T00:11:52.378Z,5.91
2023-04-12T00:12:54.497Z,5.92
2023-04-12T00:13:57.752Z,5.94
2023-04-12T00:15:01.386Z,5.94
2023-04-12T00:16:04.536Z,5.95
2023-04-12T00:17:06.743Z,5.96
2023-04-12T00:18:09.948Z,5.95
2023-04-12T00:19:11.947Z,5.93
2023-04-12T00:20:16.540Z,5.91
2023-04-12T00:21:19.762Z,5.89
2023-04-12T00:22:22.753Z,5.87
2023-04-12T00:23:24.929Z,5.86
2023-04-12T00:24:28.385Z,5.84
2023-04-12T00:25:30.729Z,5.83
2023-04-12T00:26:35.749Z,5.84
2023-04-12T00:27:39.277Z,5.85
2023-04-12T00:28:42.555Z,5.86
2023-04-12T00:29:44.527Z,5.87
2023-04-12T00:30:48.574Z,5.87
2023-04-12T00:31:50.650Z,5.88
2023-04-12T00:32:53.611Z,5.87
2023-04-12T00:33:55.888Z,5.87
2023-04-12T00:34:59.040Z,5.87
2023-04-12T00:36:01.087Z,5.86
2023-04-12T00:37:04.241Z,5.85
2023-04-12T00:38:10.645Z,5.84
2023-04-12T00:39:14.253Z,5.85
2023-04-12T00:40:16.547Z,5.82
2023-04-12T00:41:19.417Z,5.80
2023-04-12T00:42:22.932Z,5.79
2023-04-12T00:43:27.805Z,5.78
2023-04-12T00:44:29.671Z,5.76
2023-04-12T00:45:32.683Z,5.75
2023-04-12T00:46:35.573Z,5.74
2023-04-12T00:47:39.052Z,5.73
2023-04-12T00:48:41.531Z,5.72
2023-04-12T00:49:44.797Z,5.73
2023-04-12T00:50:47.560Z,5.72
2023-04-12T00:51:51.487Z,5.72
2023-04-12T00:52:59.835Z,5.72
2023-04-12T00:54:03.658Z,5.73
2023-04-12T00:55:07.296Z,5.74
2023-04-12T00:56:11.897Z,5.76
2023-04-12T00:57:14.037Z,5.77
2023-04-12T00:58:18.547Z,5.76
2023-04-12T00:59:20.701Z,5.74
2023-04-12T01:00:27.592Z,5.74
2023-04-12T01:01:29.619Z,5.73
2023-04-12T01:02:33.707Z,5.72
2023-04-12T01:03:43.281Z,5.73
2023-04-12T01:04:50.691Z,5.72
2023-04-12T01:06:04.384Z,5.71
2023-04-12T01:07:15.828Z,5.69
2023-04-12T01:08:26.044Z,5.67
2023-04-12T01:09:35.073Z,5.69
2023-04-12T01:10:43.865Z,5.69
2023-04-12T01:12:02.279Z,5.68
2023-04-12T01:13:14.393Z,5.69
2023-04-12T01:14:23.834Z,5.66
2023-04-12T01:15:26.783Z,5.66
2023-04-12T01:16:33.428Z,5.65
2023-04-12T01:17:40.249Z,5.65
2023-04-12T01:18:50.432Z,5.64
2023-04-12T01:19:57.931Z,5.63
2023-04-12T01:21:05.373Z,5.63
2023-04-12T01:22:13.748Z,5.63
2023-04-12T01:23:44.852Z,5.61
2023-04-12T01:24:53.044Z,5.59
2023-04-12T01:26:22.211Z,5.60
2023-04-12T01:27:36.415Z,5.60
2023-04-12T01:28:42.400Z,5.60
2023-04-12T01:29:49.978Z,5.59
2023-04-12T01:30:54.477Z,5.58
2023-04-12T01:31:59.594Z,5.56
2023-04-12T01:33:05.199Z,5.56
2023-04-12T01:34:08.630Z,5.55
2023-04-12T01:35:12.124Z,5.55
2023-04-12T01:36:21.072Z,5.57
2023-04-12T01:37:24.337Z,5.58
2023-04-12T01:38:27.318Z,5.59
2023-04-12T01:39:30.872Z,5.59
2023-04-12T01:40:33.257Z,5.58
2023-04-12T01:41:40.955Z,5.57
2023-04-12T01:42:44.464Z,5.57
2023-04-12T01:43:48.739Z,5.57
2023-04-12T01:44:51.628Z,5.57
2023-04-12T01:45:55.078Z,5.56
2023-04-12T01:46:57.387Z,5.55
2023-04-12T01:48:02.577Z,5.55
2023-04-12T01:49:04.871Z,5.52
2023-04-12T01:50:15.915Z,5.52
2023-04-12T01:51:24.019Z,5.51
2023-04-12T01:52:28.383Z,5.49
2023-04-12T01:53:35.457Z,5.47
2023-04-12T01:54:40.122Z,5.45
2023-04-12T01:55:45.838Z,5.44
2023-04-12T01:56:52.529Z,5.43
2023-04-12T01:57:57.977Z,5.42
2023-04-12T01:59:04.202Z,5.41
2023-04-12T02:00:10.832Z,5.41
2023-04-12T02:01:17.138Z,5.41
2023-04-12T02:02:19.394Z,5.40
2023-04-12T02:03:32.278Z,5.40
2023-04-12T02:04:37.739Z,5.41
2023-04-12T02:05:41.006Z,5.40
2023-04-12T02:06:43.772Z,5.39
2023-04-12T02:07:47.754Z,5.40
2023-04-12T02:08:57.601Z,5.40
2023-04-12T02:10:00.765Z,5.38
2023-04-12T02:11:08.527Z,5.38
2023-04-12T02:12:11.560Z,5.36
2023-04-12T02:13:14.997Z,5.37
2023-04-12T02:14:18.204Z,5.37
2023-04-12T02:15:21.367Z,5.38
2023-04-12T02:16:25.001Z,5.38
2023-04-12T02:17:29.844Z,5.39
2023-04-12T02:18:35.330Z,5.39
2023-04-12T02:19:37.486Z,5.36
2023-04-12T02:20:40.770Z,5.34
2023-04-12T02:21:44.196Z,5.35
2023-04-12T02:22:47.195Z,5.34
2023-04-12T02:23:50.290Z,5.34
2023-04-12T02:24:53.330Z,5.31
2023-04-12T02:25:55.467Z,5.34
2023-04-12T02:26:59.383Z,5.34
2023-04-12T02:28:02.320Z,5.33
2023-04-12T02:29:07.722Z,5.33
2023-04-12T02:30:11.484Z,5.33
2023-04-12T02:31:15.626Z,5.34
2023-04-12T02:32:18.460Z,5.34
2023-04-12T02:33:25.381Z,5.34
2023-04-12T02:34:34.230Z,5.34
2023-04-12T02:35:46.487Z,5.35
2023-04-12T02:36:51.423Z,5.35
2023-04-12T02:37:54.924Z,5.36
2023-04-12T02:38:59.022Z,5.37
2023-04-12T02:40:03.027Z,5.39
2023-04-12T02:41:07.159Z,5.40
2023-04-12T02:42:13.702Z,5.38
2023-04-12T02:43:16.504Z,5.37
2023-04-12T02:44:24.164Z,5.38
2023-04-12T02:45:45.872Z,5.37
2023-04-12T02:46:48.053Z,5.38
2023-04-12T02:47:52.270Z,5.39
2023-04-12T02:48:58.964Z,5.39
2023-04-12T02:50:12.433Z,5.38
2023-04-12T02:51:26.156Z,5.38
2023-04-12T02:52:30.071Z,5.38
2023-04-12T02:53:41.816Z,5.39
2023-04-12T02:54:54.636Z,5.40
2023-04-12T02:55:57.315Z,5.41
2023-04-12T02:57:03.836Z,5.39
2023-04-12T02:58:13.103Z,5.39
2023-04-12T02:59:25.978Z,5.39
2023-04-12T03:00:48.238Z,5.37
2023-04-12T03:01:53.090Z,5.36
2023-04-12T03:03:01.480Z,5.34
2023-04-12T03:04:06.620Z,5.34
2023-04-12T03:05:23.586Z,5.34
2023-04-12T03:06:28.007Z,5.35
2023-04-12T03:07:32.871Z,5.36
2023-04-12T03:08:36.150Z,5.36
2023-04-12T03:09:40.705Z,5.37
2023-04-12T03:10:43.862Z,5.36
2023-04-12T03:11:46.265Z,5.33
2023-04-12T03:12:49.896Z,5.30
2023-04-12T03:13:56.103Z,5.29
2023-04-12T03:15:01.243Z,5.27
2023-04-12T03:16:22.872Z,5.27
2023-04-12T03:17:31.102Z,5.25
2023-04-12T03:18:33.394Z,5.25
2023-04-12T03:19:36.870Z,5.25
2023-04-12T03:20:43.737Z,5.26
2023-04-12T03:21:48.480Z,5.25
2023-04-12T03:22:50.850Z,5.25
2023-04-12T03:23:54.161Z,5.27
2023-04-12T03:24:56.661Z,5.25
2023-04-12T03:26:02.218Z,5.24
2023-04-12T03:27:11.323Z,5.23
2023-04-12T03:28:14.838Z,5.23
2023-04-12T03:29:29.153Z,5.22
2023-04-12T03:30:34.150Z,5.21
2023-04-12T03:31:36.675Z,5.21
2023-04-12T03:32:43.812Z,5.18
2023-04-12T03:33:46.605Z,5.18
2023-04-12T03:35:00.858Z,5.15
2023-04-12T03:36:03.175Z,5.16
2023-04-12T03:37:08.148Z,5.17
2023-04-12T03:38:16.602Z,5.18
2023-04-12T03:39:20.332Z,5.19
2023-04-12T03:40:26.566Z,5.18
2023-04-12T03:41:34.999Z,5.17
2023-04-12T03:42:39.693Z,5.17
2023-04-12T03:43:51.700Z,5.15
2023-04-12T03:44:55.190Z,5.14
2023-04-12T03:46:21.033Z,5.14
2023-04-12T03:47:33.511Z,5.13
2023-04-12T03:48:43.821Z,5.14
2023-04-12T03:50:06.104Z,5.17
2023-04-12T03:51:31.126Z,5.14
2023-04-12T03:52:39.786Z,5.14
2023-04-12T03:53:42.922Z,5.13
2023-04-12T03:54:50.767Z,5.13
2023-04-12T03:56:04.161Z,5.12
2023-04-12T03:57:08.416Z,5.13
2023-04-12T03:58:16.543Z,5.13
2023-04-12T03:59:20.927Z,5.11
2023-04-12T04:00:37.584Z,5.11
2023-04-12T04:01:54.349Z,5.08
2023-04-12T04:03:03.412Z,5.08
2023-04-12T04:04:21.157Z,5.07
2023-04-12T04:05:33.748Z,5.06
2023-04-12T04:06:38.816Z,5.07
2023-04-12T04:08:04.943Z,5.08
2023-04-12T04:10:08.977Z,5.05
2023-04-12T04:11:14.826Z,5.06
2023-04-12T04:12:22.836Z,5.05
2023-04-12T04:13:29.156Z,5.05
2023-04-12T04:14:36.912Z,5.05
2023-04-12T04:15:40.971Z,5.04
2023-04-12T04:16:44.912Z,5.03
2023-04-12T04:17:49.279Z,5.02
2023-04-12T04:18:55.153Z,4.99
2023-04-12T04:19:59.871Z,5.00
2023-04-12T04:21:03.333Z,4.99
2023-04-12T04:22:10.184Z,4.98
2023-04-12T04:23:12.650Z,4.98
2023-04-12T04:24:18.831Z,4.98
2023-04-12T04:25:30.058Z,5.00
2023-04-12T04:26:38.427Z,5.02
2023-04-12T04:27:52.119Z,5.01
2023-04-12T04:29:01.695Z,5.00
2023-04-12T04:30:10.498Z,4.97
2023-04-12T04:31:18.517Z,4.98
2023-04-12T04:32:25.909Z,5.00
2023-04-12T04:33:36.202Z,5.03
2023-04-12T04:34:40.361Z,5.07
2023-04-12T04:35:49.983Z,5.08
2023-04-12T04:36:58.972Z,5.07
2023-04-12T04:38:03.082Z,5.08
2023-04-12T04:39:08.315Z,5.07
2023-04-12T04:40:15.333Z,5.06
2023-04-12T04:41:24.678Z,5.05
2023-04-12T04:42:33.037Z,5.04
2023-04-12T04:43:40.041Z,5.06
2023-04-12T04:44:42.732Z,5.08
2023-04-12T04:45:49.487Z,5.07
2023-04-12T04:47:13.056Z,5.06
2023-04-12T04:48:16.458Z,5.06
2023-04-12T04:49:27.180Z,5.05
2023-04-12T04:50:34.306Z,5.07
2023-04-12T04:51:38.970Z,5.09
2023-04-12T04:52:41.376Z,5.12
2023-04-12T04:53:52.047Z,5.13
2023-04-12T04:54:57.901Z,5.16
2023-04-12T04:56:05.753Z,5.17
2023-04-12T04:57:12.211Z,5.19
2023-04-12T04:58:18.649Z,5.19
2023-04-12T04:59:21.145Z,5.19
2023-04-12T05:00:39.301Z,5.20
2023-04-12T05:01:59.291Z,5.20
2023-04-12T05:03:02.171Z,5.22
2023-04-12T05:04:06.007Z,5.24
2023-04-12T05:05:16.729Z,5.24
2023-04-12T05:06:22.634Z,5.23
2023-04-12T05:07:25.874Z,5.25
2023-04-12T05:08:30.751Z,5.25
2023-04-12T05:09:34.033Z,5.25
2023-04-12T05:10:37.482Z,5.25
2023-04-12T05:11:39.895Z,5.27
2023-04-12T05:12:47.173Z,5.27
2023-04-12T05:13:50.442Z,5.29
2023-04-12T05:15:01.343Z,5.29
2023-04-12T05:16:15.970Z,5.31
2023-04-12T05:17:18.738Z,5.33
2023-04-12T05:18:23.062Z,5.34
2023-04-12T05:19:25.613Z,5.37
2023-04-12T05:20:30.263Z,5.40
2023-04-12T05:21:34.629Z,5.41
2023-04-12T05:22:37.963Z,5.42
2023-04-12T05:23:43.306Z,5.43
2023-04-12T05:25:20.928Z,5.44
2023-04-12T05:26:31.751Z,5.44
2023-04-12T05:27:36.165Z,5.47
2023-04-12T05:28:44.821Z,5.47
2023-04-12T05:29:48.871Z,5.45
2023-04-12T05:30:55.834Z,5.43
2023-04-12T05:32:06.646Z,5.41
2023-04-12T05:33:23.243Z,5.40
2023-04-12T05:34:29.500Z,5.40
2023-04-12T05:35:34.908Z,5.44
2023-04-12T05:36:38.850Z,5.47
2023-04-12T05:37:42.949Z,5.51
2023-04-12T05:38:45.797Z,5.53
2023-04-12T05:39:50.597Z,5.56
2023-04-12T05:40:54.332Z,5.56
2023-04-12T05:41:59.965Z,5.56
2023-04-12T05:43:03.646Z,5.54
2023-04-12T05:44:08.334Z,5.53
2023-04-12T05:45:12.716Z,5.50
2023-04-12T05:46:16.937Z,5.50
2023-04-12T05:47:25.724Z,5.50
2023-04-12T05:48:32.715Z,5.50
2023-04-12T05:49:36.898Z,5.52
2023-04-12T05:50:53.820Z,5.57
2023-04-12T05:51:58.176Z,5.61
2023-04-12T05:53:02.556Z,5.65
2023-04-12T05:54:07.471Z,5.66
2023-04-12T05:55:12.164Z,5.72
2023-04-12T05:56:17.158Z,5.75
2023-04-12T05:57:21.794Z,5.78
2023-04-12T05:58:27.406Z,5.81
2023-04-12T05:59:31.447Z,5.83
2023-04-12T06:00:34.331Z,5.84
2023-04-12T06:01:42.877Z,5.85
2023-04-12T06:02:45.659Z,5.88
2023-04-12T06:03:49.487Z,5.91
2023-04-12T06:04:52.807Z,5.95
2023-04-12T06:05:57.849Z,5.97
2023-04-12T06:07:01.831Z,5.98
2023-04-12T06:08:16.109Z,5.99
2023-04-12T06:09:19.888Z,6.01
2023-04-12T06:10:24.014Z,6.03
2023-04-12T06:11:29.857Z,6.08
2023-04-12T06:12:32.992Z,6.06
2023-04-12T06:13:43.951Z,5.99
2023-04-12T06:14:46.663Z,5.96
2023-04-12T06:15:50.193Z,5.93
2023-04-12T06:16:52.828Z,5.92
2023-04-12T06:17:56.543Z,5.94
2023-04-12T06:18:59.305Z,5.95
2023-04-12T06:20:06.011Z,5.94
2023-04-12T06:21:10.709Z,5.98
2023-04-12T06:22:13.838Z,5.99
2023-04-12T06:23:20.833Z,5.98
2023-04-12T06:24:25.432Z,5.98
2023-04-12T06:25:34.740Z,5.99
2023-04-12T06:26:40.441Z,5.98
2023-04-12T06:28:17.555Z,5.93
2023-04-12T06:29:26.223Z,5.93
2023-04-12T06:30:29.457Z,5.94
2023-04-12T06:31:32.597Z,5.94
2023-04-12T06:32:36.356Z,5.99
2023-04-12T06:33:46.071Z,6.02
2023-04-12T06:34:48.653Z,6.08
2023-04-12T06:35:53.839Z,6.13
2023-04-12T06:36:57.667Z,6.18
2023-04-12T06:38:01.119Z,6.18
2023-04-12T06:39:05.067Z,6.17
2023-04-12T06:40:09.281Z,6.21
2023-04-12T06:41:14.978Z,6.21
2023-04-12T06:42:17.992Z,6.22
2023-04-12T06:43:22.753Z,6.22
2023-04-12T06:44:26.361Z,6.22
2023-04-12T06:45:32.040Z,6.23
2023-04-12T06:46:34.761Z,6.23
2023-04-12T06:47:38.297Z,6.25
2023-04-12T06:48:41.394Z,6.28
2023-04-12T06:49:44.762Z,6.30
2023-04-12T06:50:47.515Z,6.33
2023-04-12T06:51:51.333Z,6.36
2023-04-12T06:52:55.439Z,6.40
2023-04-12T06:53:58.736Z,6.48
2023-04-12T06:55:00.956Z,6.57
2023-04-12T06:56:05.596Z,6.62
2023-04-12T06:57:09.242Z,6.64
2023-04-12T06:58:12.427Z,6.66
2023-04-12T06:59:16.012Z,6.68
2023-04-12T07:00:19.361Z,6.71
2023-04-12T07:01:47.688Z,6.79
2023-04-12T07:02:50.290Z,6.86
2023-04-12T07:03:53.613Z,6.92
2023-04-12T07:04:56.108Z,6.97
2023-04-12T07:06:07.538Z,7.04
2023-04-12T07:07:16.812Z,7.13
2023-04-12T07:08:20.594Z,7.19
2023-04-12T07:09:24.273Z,7.24
2023-04-12T07:10:26.694Z,7.33
2023-04-12T07:11:31.785Z,7.42
2023-04-12T07:12:34.488Z,7.46
2023-04-12T07:13:37.466Z,7.48
2023-04-12T07:14:42.392Z,7.51
2023-04-12T07:15:50.609Z,7.52
2023-04-12T07:16:54.054Z,7.50
2023-04-12T07:17:56.503Z,7.51
2023-04-12T07:19:05.411Z,7.54
2023-04-12T07:20:09.072Z,7.57
2023-04-12T07:21:14.395Z,7.59
2023-04-12T07:22:17.732Z,7.65
2023-04-12T07:23:21.549Z,7.66
2023-04-12T07:24:24.907Z,7.70
2023-04-12T07:25:27.114Z,7.75
2023-04-12T07:26:30.306Z,7.82
2023-04-12T07:27:32.772Z,7.86
2023-04-12T07:28:36.577Z,7.88
2023-04-12T07:29:39.754Z,7.88
2023-04-12T07:30:42.903Z,7.94
2023-04-12T07:31:45.737Z,7.99
2023-04-12T07:32:48.931Z,8.05
2023-04-12T07:33:52.677Z,8.07
2023-04-12T07:34:57.763Z,8.07
2023-04-12T07:36:01.028Z,8.07
2023-04-12T07:37:04.448Z,8.10
2023-04-12T07:38:07.984Z,8.17
2023-04-12T07:39:12.614Z,8.23
2023-04-12T07:40:16.367Z,8.29
2023-04-12T07:41:19.479Z,8.34
2023-04-12T07:42:22.757Z,8.44
2023-04-12T07:43:27.618Z,8.56
2023-04-12T07:44:31.560Z,8.64
2023-04-12T07:45:37.246Z,8.76
2023-04-12T07:46:41.948Z,8.79
2023-04-12T07:47:44.941Z,8.85
2023-04-12T07:48:52.237Z,8.92
2023-04-12T07:49:59.046Z,9.02
2023-04-12T07:51:02.464Z,9.07
2023-04-12T07:52:05.034Z,9.07
2023-04-12T07:53:21.466Z,9.01
2023-04-12T07:54:57.848Z,9.00
2023-04-12T07:55:59.963Z,9.01
2023-04-12T07:57:06.674Z,9.09
2023-04-12T07:58:09.845Z,9.20
2023-04-12T07:59:12.854Z,9.27
2023-04-12T08:00:18.106Z,9.38
2023-04-12T08:01:20.550Z,9.51
2023-04-12T08:02:26.067Z,9.71
2023-04-12T08:03:28.583Z,9.88
2023-04-12T08:04:31.702Z,10.02
2023-04-12T08:05:34.008Z,10.14
2023-04-12T08:06:37.625Z,10.24
2023-04-12T08:07:39.631Z,10.32
2023-04-12T08:08:42.521Z,10.36
2023-04-12T08:09:44.747Z,10.35
2023-04-12T08:10:49.332Z,10.33
2023-04-12T08:11:51.710Z,10.31
2023-04-12T08:12:54.887Z,10.33
2023-04-12T08:13:57.381Z,10.39
2023-04-12T08:15:01.764Z,10.45
2023-04-12T08:16:04.524Z,10.57
2023-04-12T08:17:07.718Z,10.64
2023-04-12T08:18:10.207Z,10.67
2023-04-12T08:19:16.374Z,10.56
2023-04-12T08:20:21.839Z,10.44
2023-04-12T08:21:34.960Z,10.38
2023-04-12T08:22:37.568Z,10.32
2023-04-12T08:23:40.790Z,10.35
2023-04-12T08:24:49.979Z,10.58
2023-04-12T08:26:03.105Z,10.73
2023-04-12T08:27:06.301Z,10.89
2023-04-12T08:28:09.271Z,11.05
2023-04-12T08:29:12.610Z,11.29
2023-04-12T08:30:15.730Z,11.58
2023-04-12T08:31:18.222Z,11.74
2023-04-12T08:32:21.721Z,11.76
2023-04-12T08:33:24.784Z,11.73
2023-04-12T08:34:27.818Z,11.73
2023-04-12T08:35:31.196Z,11.68
2023-04-12T08:36:34.372Z,11.61
2023-04-12T08:37:36.656Z,11.51
2023-04-12T08:38:45.787Z,11.47
2023-04-12T08:39:49.410Z,11.38
2023-04-12T08:40:54.957Z,11.29
2023-04-12T08:41:59.852Z,11.22
2023-04-12T08:43:03.489Z,11.18
2023-04-12T08:44:06.775Z,11.20
2023-04-12T08:45:11.796Z,11.40
2023-04-12T08:46:16.493Z,11.66
2023-04-12T08:47:19.569Z,11.68
2023-04-12T08:48:23.636Z,11.90
2023-04-12T08:49:25.611Z,12.19
2023-04-12T08:50:28.498Z,12.49
2023-04-12T08:51:32.235Z,12.76
2023-04-12T08:52:34.239Z,12.84
2023-04-12T08:53:37.137Z,12.72
2023-04-12T08:54:39.267Z,12.60
2023-04-12T08:55:44.904Z,12.44
2023-04-12T08:56:47.196Z,12.18
2023-04-12T08:57:55.107Z,11.87
2023-04-12T08:58:58.417Z,11.61
2023-04-12T09:00:01.359Z,11.41
2023-04-12T09:01:04.956Z,11.32
2023-04-12T09:02:07.001Z,11.50
2023-04-12T09:03:10.641Z,11.84
2023-04-12T09:04:14.951Z,12.28
2023-04-12T09:05:20.545Z,12.65
2023-04-12T09:06:22.501Z,13.02
2023-04-12T09:07:28.037Z,13.26
2023-04-12T09:08:29.978Z,13.48
2023-04-12T09:09:51.306Z,13.59
2023-04-12T09:10:54.896Z,13.49
2023-04-12T09:12:07.000Z,13.27
2023-04-12T09:13:11.495Z,13.03
2023-04-12T09:14:22.067Z,12.83
2023-04-12T09:15:25.125Z,12.67
2023-04-12T09:16:38.862Z,12.58
2023-04-12T09:17:42.707Z,12.43
2023-04-12T09:18:48.576Z,12.35
2023-04-12T09:19:51.974Z,12.21
2023-04-12T09:21:11.899Z,12.03
2023-04-12T09:22:14.709Z,11.94
2023-04-12T09:23:20.139Z,11.90
2023-04-12T09:24:24.501Z,11.95
2023-04-12T09:25:38.607Z,12.02
2023-04-12T09:26:41.939Z,12.19
2023-04-12T09:27:48.046Z,12.35
2023-04-12T09:30:53.532Z,13.03
2023-04-12T09:32:27.502Z,13.11
2023-04-12T09:33:35.818Z,13.01
2023-04-12T09:34:57.151Z,12.91
2023-04-12T09:36:03.237Z,12.76
2023-04-12T09:37:16.468Z,12.70
2023-04-12T09:38:18.886Z,12.67
2023-04-12T09:39:32.092Z,12.62
2023-04-12T09:40:36.373Z,12.52
2023-04-12T09:41:40.060Z,12.44
2023-04-12T09:42:51.994Z,12.33
2023-04-12T09:43:57.370Z,12.28
2023-04-12T09:45:01.849Z,12.25
2023-04-12T09:46:13.960Z,12.19
2023-04-12T09:47:17.373Z,12.18
2023-04-12T09:48:20.727Z,12.26
2023-04-12T09:49:38.986Z,12.25
2023-04-12T09:50:42.760Z,12.31
2023-04-12T09:51:51.822Z,12.46
2023-04-12T09:52:56.542Z,12.62
2023-04-12T09:54:01.448Z,12.77
2023-04-12T09:55:26.442Z,12.79
2023-04-12T09:56:32.444Z,12.89
2023-04-12T09:57:35.265Z,13.02
2023-04-12T09:58:40.284Z,13.22
2023-04-12T09:59:44.713Z,13.34
2023-04-12T10:00:48.576Z,13.45
2023-04-12T10:01:51.556Z,13.50
2023-04-12T10:02:57.198Z,13.54
2023-04-12T10:04:00.737Z,13.62
2023-04-12T10:05:11.085Z,13.70
2023-04-12T10:06:14.639Z,13.80
2023-04-12T10:07:16.896Z,13.91
2023-04-12T10:08:21.003Z,13.95
2023-04-12T10:09:23.873Z,14.06
2023-04-12T10:10:27.591Z,14.21
2023-04-12T10:11:30.323Z,14.26
2023-04-12T10:12:34.749Z,14.23
2023-04-12T10:13:38.622Z,14.18
2023-04-12T10:14:44.914Z,14.26
2023-04-12T10:15:47.576Z,14.28
2023-04-12T10:16:51.085Z,14.34
2023-04-12T10:17:55.301Z,14.30
2023-04-12T10:19:03.880Z,14.22
2023-04-12T10:20:08.005Z,14.23
2023-04-12T10:21:12.480Z,14.30
2023-04-12T10:22:19.651Z,14.35
2023-04-12T10:23:23.186Z,14.30
2023-04-12T10:24:27.629Z,14.22
2023-04-12T10:25:31.134Z,14.18
2023-04-12T10:26:35.571Z,14.17
2023-04-12T10:27:37.875Z,14.16
2023-04-12T10:28:41.215Z,14.23
2023-04-12T10:29:44.657Z,14.44
2023-04-12T10:30:49.607Z,14.79
2023-04-12T10:31:52.315Z,14.89
2023-04-12T10:33:19.595Z,14.90
2023-04-12T10:34:28.686Z,14.98
2023-04-12T10:35:31.373Z,15.10
2023-04-12T10:36:54.612Z,15.25
2023-04-12T10:38:01.046Z,15.37
2023-04-12T10:39:11.616Z,15.71
2023-04-12T10:40:19.186Z,15.88
2023-04-12T10:41:22.867Z,15.92
2023-04-12T10:42:27.257Z,16.00
2023-04-12T10:43:30.523Z,16.09
2023-04-12T10:44:33.770Z,16.11
2023-04-12T10:45:38.795Z,16.10
2023-04-12T10:46:53.833Z,16.01
2023-04-12T10:48:01.414Z,15.88
2023-04-12T10:49:09.180Z,15.79
2023-04-12T10:50:24.575Z,15.65
2023-04-12T10:51:28.801Z,15.48
2023-04-12T10:52:44.907Z,15.36
2023-04-12T10:53:47.333Z,15.25
2023-04-12T10:54:57.247Z,15.11
2023-04-12T10:55:59.580Z,15.06
2023-04-12T10:57:05.396Z,14.98
2023-04-12T10:58:51.909Z,14.89
2023-04-12T10:59:59.437Z,14.87
2023-04-12T11:01:12.484Z,14.91
2023-04-12T11:02:16.699Z,14.95
2023-04-12T11:03:28.440Z,15.00
2023-04-12T11:04:31.686Z,15.01
2023-04-12T11:06:12.682Z,15.05
2023-04-12T11:07:47.389Z,14.82
2023-04-12T11:09:18.634Z,14.65
2023-04-12T11:10:22.034Z,14.61
2023-04-12T11:11:27.536Z,14.62
2023-04-12T11:12:30.738Z,14.70
2023-04-12T11:13:36.048Z,14.91
2023-04-12T11:14:43.783Z,15.27
2023-04-12T11:15:46.113Z,15.49
2023-04-12T11:17:24.885Z,15.55
2023-04-12T11:18:28.289Z,15.40
2023-04-12T11:19:31.384Z,15.27
2023-04-12T11:20:34.583Z,15.23
2023-04-12T11:21:37.268Z,15.22
2023-04-12T11:22:41.440Z,15.24
2023-04-12T11:23:44.543Z,15.27
2023-04-12T11:24:49.623Z,15.32
2023-04-12T11:25:55.810Z,15.45
2023-04-12T11:29:13.831Z,15.39
2023-04-12T11:30:17.203Z,15.38
2023-04-12T11:31:20.610Z,15.55
2023-04-12T11:32:27.709Z,15.66
2023-04-12T11:33:34.449Z,15.64
2023-04-12T11:34:38.044Z,15.63
2023-04-12T11:35:44.692Z,15.57
2023-04-12T11:36:47.842Z,15.63
2023-04-12T11:37:51.305Z,15.92
2023-04-12T11:38:57.023Z,16.37
2023-04-12T11:39:59.575Z,16.81
2023-04-12T11:41:02.745Z,17.33
2023-04-12T11:42:05.025Z,17.69
2023-04-12T11:43:08.239Z,18.14
2023-04-12T11:44:10.251Z,18.42
2023-04-12T11:45:18.100Z,18.59
2023-04-12T11:46:20.931Z,18.60
2023-04-12T11:47:28.679Z,18.49
2023-04-12T11:48:31.111Z,18.41
2023-04-12T11:49:34.461Z,18.44
2023-04-12T11:50:43.131Z,18.52
2023-04-12T11:51:48.991Z,18.64
2023-04-12T11:52:52.918Z,18.81
2023-04-12T11:53:55.531Z,18.99
2023-04-12T11:55:01.978Z,19.28
2023-04-12T11:56:04.574Z,19.36
2023-04-12T11:57:07.667Z,19.44
2023-04-12T11:58:10.583Z,19.62
2023-04-12T11:59:12.574Z,19.96
2023-04-12T12:00:16.869Z,20.20
2023-04-12T12:01:19.990Z,20.28
2023-04-12T12:02:24.601Z,20.37
2023-04-12T12:03:30.365Z,20.54
2023-04-12T12:04:33.127Z,20.62
2023-04-12T12:05:38.499Z,20.66
2023-04-12T12:06:42.220Z,20.62
2023-04-12T12:07:45.351Z,20.33
2023-04-12T12:08:50.186Z,19.94
2023-04-12T12:09:53.664Z,19.58
2023-04-12T12:11:07.167Z,19.24
2023-04-12T12:12:12.263Z,19.03
2023-04-12T12:13:14.835Z,18.92
2023-04-12T12:14:20.314Z,18.77
2023-04-12T12:15:23.497Z,18.64
2023-04-12T12:16:27.992Z,18.55
2023-04-12T12:17:31.900Z,18.41
2023-04-12T12:18:40.106Z,18.20
2023-04-12T12:19:44.814Z,17.94
2023-04-12T12:20:50.952Z,17.68
2023-04-12T12:21:53.032Z,17.46
2023-04-12T12:22:56.115Z,17.38
2023-04-12T12:23:58.761Z,17.28
2023-04-12T12:25:02.392Z,17.02
2023-04-12T12:26:18.447Z,16.76
2023-04-12T12:27:24.613Z,16.55
2023-04-12T12:28:27.369Z,16.44
2023-04-12T12:29:36.703Z,16.32
2023-04-12T12:30:40.331Z,16.23
2023-04-12T12:31:47.615Z,16.07
2023-04-12T12:32:52.371Z,15.98
2023-04-12T12:34:00.265Z,15.93
2023-04-12T12:35:04.673Z,15.97
2023-04-12T12:36:07.645Z,16.03
2023-04-12T12:37:13.509Z,15.99
2023-04-12T12:38:16.856Z,15.92
2023-04-12T12:39:19.022Z,15.92
2023-04-12T12:40:31.613Z,15.83
2023-04-12T12:41:34.332Z,15.74
2023-04-12T12:42:44.710Z,15.60
2023-04-12T12:43:47.696Z,15.41
2023-04-12T12:44:50.180Z,15.26
2023-04-12T12:45:53.413Z,15.07
2023-04-12T12:47:03.366Z,14.95
2023-04-12T12:48:19.337Z,14.79
2023-04-12T12:49:23.040Z,14.70
2023-04-12T12:50:51.320Z,14.61
2023-04-12T12:52:01.407Z,14.58
2023-04-12T12:53:06.045Z,14.69
2023-04-12T12:54:08.068Z,14.78
2023-04-12T12:55:11.126Z,14.82
2023-04-12T12:56:14.221Z,14.79
2023-04-12T12:57:18.038Z,14.82
2023-04-12T12:58:21.419Z,14.88
2023-04-12T12:59:25.476Z,14.97
2023-04-12T13:00:30.021Z,15.03
2023-04-12T13:01:32.665Z,15.08
2023-04-12T13:02:36.009Z,15.15
2023-04-12T13:03:38.592Z,15.28
2023-04-12T13:04:43.937Z,15.41
2023-04-12T13:05:47.201Z,15.54
2023-04-12T13:06:50.580Z,15.66
2023-04-12T13:07:53.201Z,15.76
2023-04-12T13:08:56.491Z,15.98
2023-04-12T13:09:59.256Z,16.08
2023-04-12T13:11:02.348Z,16.15
2023-04-12T13:12:04.594Z,16.24
2023-04-12T13:13:07.600Z,16.27
2023-04-12T13:14:09.757Z,16.50
2023-04-12T13:15:22.063Z,16.79
2023-04-12T13:16:26.798Z,17.03
2023-04-12T13:17:30.689Z,17.23
2023-04-12T13:18:32.921Z,17.40
2023-04-12T13:19:36.282Z,17.55
2023-04-12T13:20:40.097Z,17.68
2023-04-12T13:21:43.230Z,17.79
2023-04-12T13:22:45.457Z,17.70
2023-04-12T13:23:48.659Z,17.55
2023-04-12T13:24:50.900Z,17.36
2023-04-12T13:25:54.061Z,17.22
2023-04-12T13:26:56.173Z,17.09
2023-04-12T13:27:59.062Z,16.94
2023-04-12T13:29:01.401Z,16.81
2023-04-12T13:30:05.143Z,16.66
2023-04-12T13:31:08.347Z,16.53
2023-04-12T13:32:10.778Z,16.33
2023-04-12T13:33:19.195Z,16.22
2023-04-12T13:34:23.606Z,16.10
2023-04-12T13:35:26.938Z,15.95
2023-04-12T13:36:31.001Z,15.80
2023-04-12T13:37:35.645Z,15.75
2023-04-12T13:38:41.763Z,15.74
2023-04-12T13:39:45.783Z,15.73
2023-04-12T13:40:51.850Z,15.58
2023-04-12T13:41:54.803Z,15.47
2023-04-12T13:42:57.984Z,15.32
2023-04-12T13:44:01.050Z,15.20
2023-04-12T13:45:04.639Z,15.19
2023-04-12T13:46:08.187Z,15.22
2023-04-12T13:47:11.192Z,15.23
2023-04-12T13:48:13.148Z,15.19
2023-04-12T13:49:16.163Z,15.10
2023-04-12T13:50:19.184Z,14.98
2023-04-12T13:51:22.028Z,14.86
2023-04-12T13:52:25.436Z,14.77
2023-04-12T13:53:28.260Z,14.63
2023-04-12T13:54:30.740Z,14.51
2023-04-12T13:55:33.740Z,14.40
2023-04-12T13:56:36.649Z,14.36
2023-04-12T13:57:39.580Z,14.37
2023-04-12T13:58:42.759Z,14.40
2023-04-12T13:59:45.829Z,14.45
2023-04-12T14:00:47.790Z,14.48
2023-04-12T14:01:51.000Z,14.42
2023-04-12T14:02:53.079Z,14.36
2023-04-12T14:03:56.974Z,14.30
2023-04-12T14:05:00.632Z,14.25
2023-04-12T14:06:02.769Z,14.24
2023-04-12T14:07:05.867Z,14.30
2023-04-12T14:08:09.382Z,14.42
2023-04-12T14:09:24.147Z,14.65
2023-04-12T14:10:26.969Z,14.91
2023-04-12T14:11:29.206Z,15.09
2023-04-12T14:12:32.709Z,15.32
2023-04-12T14:13:34.557Z,15.62
2023-04-12T14:14:37.863Z,15.97
2023-04-12T14:15:39.975Z,16.39
2023-04-12T14:16:43.104Z,16.70
2023-04-12T14:17:46.650Z,17.01
2023-04-12T14:18:48.621Z,17.28
2023-04-12T14:19:51.878Z,17.52
2023-04-12T14:20:54.802Z,17.75
2023-04-12T14:21:57.868Z,18.07
2023-04-12T14:23:01.238Z,18.37
2023-04-12T14:24:04.813Z,18.63
2023-04-12T14:25:09.314Z,18.79
2023-04-12T14:26:16.352Z,18.86
2023-04-12T14:27:18.822Z,18.90
2023-04-12T14:28:21.990Z,19.00
2023-04-12T14:29:23.901Z,19.19